sensor_id;sensor_type;location;lat;lon;timestamp;P1;durP1;ratioP1;P2;durP2;ratioP2
17993;SDS011;9122;48.406;9.984;2022-12-24T00:00:09;2.33;;;0.80;;
17993;SDS011;9122;48.406;9.984;2022-12-24T00:02:54;1.30;;;0.83;;
17993;SDS011;9122;48.406;9.984;2022-12-24T00:05:39;1.87;;;0.70;;
17993;SDS011;9122;48.406;9.984;2022-12-24T00:08:24;2.30;;;0.80;;
17993;SDS011;9122;48.406;9.984;2022-12-24T00:11:08;1.40;;;0.53;;
17993;SDS011;9122;48.406;9.984;2022-12-24T00:13:52;0.97;;;0.73;;
17993;SDS011;9122;48.406;9.984;2022-12-24T00:16:37;1.73;;;0.70;;
17993;SDS011;9122;48.406;9.984;2022-12-24T00:19:21;1.23;;;0.80;;
17993;SDS011;9122;48.406;9.984;2022-12-24T00:22:06;1.03;;;0.90;;
17993;SDS011;9122;48.406;9.984;2022-12-24T00:24:50;1.27;;;0.80;;
17993;SDS011;9122;48.406;9.984;2022-12-24T00:27:34;2.40;;;0.90;;
17993;SDS011;9122;48.406;9.984;2022-12-24T00:30:18;1.10;;;0.90;;
17993;SDS011;9122;48.406;9.984;2022-12-24T00:33:02;0.70;;;0.70;;
17993;SDS011;9122;48.406;9.984;2022-12-24T00:35:48;3.70;;;1.00;;
17993;SDS011;9122;48.406;9.984;2022-12-24T00:38:34;0.80;;;0.80;;
17993;SDS011;9122;48.406;9.984;2022-12-24T00:41:19;0.73;;;0.70;;
17993;SDS011;9122;48.406;9.984;2022-12-24T00:44:11;2.00;;;0.73;;
17993;SDS011;9122;48.406;9.984;2022-12-24T00:46:56;1.83;;;0.93;;
17993;SDS011;9122;48.406;9.984;2022-12-24T00:49:40;1.07;;;0.80;;
17993;SDS011;9122;48.406;9.984;2022-12-24T00:52:24;1.00;;;0.90;;
17993;SDS011;9122;48.406;9.984;2022-12-24T00:55:09;2.03;;;0.93;;
17993;SDS011;9122;48.406;9.984;2022-12-24T00:57:54;0.97;;;0.97;;
17993;SDS011;9122;48.406;9.984;2022-12-24T01:00:38;1.33;;;1.13;;
17993;SDS011;9122;48.406;9.984;2022-12-24T01:03:22;0.83;;;0.83;;
17993;SDS011;9122;48.406;9.984;2022-12-24T01:06:11;1.20;;;1.10;;
17993;SDS011;9122;48.406;9.984;2022-12-24T01:08:57;1.40;;;1.30;;
17993;SDS011;9122;48.406;9.984;2022-12-24T01:11:41;2.30;;;1.10;;
17993;SDS011;9122;48.406;9.984;2022-12-24T01:14:26;0.83;;;0.83;;
17993;SDS011;9122;48.406;9.984;2022-12-24T01:17:11;1.50;;;1.00;;
17993;SDS011;9122;48.406;9.984;2022-12-24T01:19:55;1.17;;;0.90;;
17993;SDS011;9122;48.406;9.984;2022-12-24T01:22:40;0.80;;;0.80;;
17993;SDS011;9122;48.406;9.984;2022-12-24T01:25:24;1.07;;;0.80;;
17993;SDS011;9122;48.406;9.984;2022-12-24T01:28:09;0.93;;;0.90;;
17993;SDS011;9122;48.406;9.984;2022-12-24T01:30:53;1.00;;;1.00;;
17993;SDS011;9122;48.406;9.984;2022-12-24T01:33:38;0.80;;;0.80;;
17993;SDS011;9122;48.406;9.984;2022-12-24T01:36:22;1.70;;;0.67;;
17993;SDS011;9122;48.406;9.984;2022-12-24T01:39:07;0.80;;;0.80;;
17993;SDS011;9122;48.406;9.984;2022-12-24T01:41:52;2.10;;;0.90;;
17993;SDS011;9122;48.406;9.984;2022-12-24T01:44:54;2.57;;;0.70;;
17993;SDS011;9122;48.406;9.984;2022-12-24T01:47:39;1.10;;;0.70;;
17993;SDS011;9122;48.406;9.984;2022-12-24T01:50:23;1.03;;;1.03;;
17993;SDS011;9122;48.406;9.984;2022-12-24T01:53:07;0.80;;;0.80;;
17993;SDS011;9122;48.406;9.984;2022-12-24T01:55:54;0.80;;;0.80;;
17993;SDS011;9122;48.406;9.984;2022-12-24T01:58:39;0.83;;;0.80;;
17993;SDS011;9122;48.406;9.984;2022-12-24T02:01:26;2.63;;;0.90;;
17993;SDS011;9122;48.406;9.984;2022-12-24T02:04:12;3.73;;;0.80;;
17993;SDS011;9122;48.406;9.984;2022-12-24T02:07:09;1.30;;;1.10;;
17993;SDS011;9122;48.406;9.984;2022-12-24T02:09:56;2.87;;;1.40;;
17993;SDS011;9122;48.406;9.984;2022-12-24T02:12:42;3.13;;;1.17;;
17993;SDS011;9122;48.406;9.984;2022-12-24T02:15:30;3.13;;;1.50;;
17993;SDS011;9122;48.406;9.984;2022-12-24T02:27:44;1.60;;;1.50;;
17993;SDS011;9122;48.406;9.984;2022-12-24T02:30:53;2.33;;;1.50;;
17993;SDS011;9122;48.406;9.984;2022-12-24T02:33:49;2.37;;;1.83;;
17993;SDS011;9122;48.406;9.984;2022-12-24T02:36:56;3.27;;;1.40;;
17993;SDS011;9122;48.406;9.984;2022-12-24T02:39:44;3.27;;;1.60;;
17993;SDS011;9122;48.406;9.984;2022-12-24T02:42:52;2.10;;;1.43;;
17993;SDS011;9122;48.406;9.984;2022-12-24T02:45:42;2.03;;;1.27;;
17993;SDS011;9122;48.406;9.984;2022-12-24T02:48:30;2.07;;;1.30;;
17993;SDS011;9122;48.406;9.984;2022-12-24T02:51:15;2.37;;;1.80;;
17993;SDS011;9122;48.406;9.984;2022-12-24T02:54:05;1.90;;;1.37;;
17993;SDS011;9122;48.406;9.984;2022-12-24T02:56:53;2.87;;;1.50;;
17993;SDS011;9122;48.406;9.984;2022-12-24T03:00:05;2.33;;;1.63;;
17993;SDS011;9122;48.406;9.984;2022-12-24T03:05:59;1.57;;;1.27;;
17993;SDS011;9122;48.406;9.984;2022-12-24T03:09:03;1.83;;;1.67;;
17993;SDS011;9122;48.406;9.984;2022-12-24T03:12:11;1.60;;;1.50;;
17993;SDS011;9122;48.406;9.984;2022-12-24T03:15:25;2.20;;;1.50;;
17993;SDS011;9122;48.406;9.984;2022-12-24T03:18:12;1.43;;;1.33;;
17993;SDS011;9122;48.406;9.984;2022-12-24T03:21:11;2.00;;;1.07;;
17993;SDS011;9122;48.406;9.984;2022-12-24T03:24:00;1.33;;;0.97;;
17993;SDS011;9122;48.406;9.984;2022-12-24T03:26:45;1.60;;;0.90;;
17993;SDS011;9122;48.406;9.984;2022-12-24T03:29:30;1.07;;;1.07;;
17993;SDS011;9122;48.406;9.984;2022-12-24T03:32:15;2.07;;;1.30;;
17993;SDS011;9122;48.406;9.984;2022-12-24T03:35:07;2.27;;;1.17;;
17993;SDS011;9122;48.406;9.984;2022-12-24T03:37:51;2.27;;;0.90;;
17993;SDS011;9122;48.406;9.984;2022-12-24T03:40:36;1.77;;;1.20;;
17993;SDS011;9122;48.406;9.984;2022-12-24T03:43:21;0.90;;;0.90;;
17993;SDS011;9122;48.406;9.984;2022-12-24T03:46:06;0.93;;;0.93;;
17993;SDS011;9122;48.406;9.984;2022-12-24T03:48:50;1.20;;;1.10;;
17993;SDS011;9122;48.406;9.984;2022-12-24T03:51:35;1.93;;;0.97;;
17993;SDS011;9122;48.406;9.984;2022-12-24T03:54:20;1.00;;;0.87;;
17993;SDS011;9122;48.406;9.984;2022-12-24T03:57:04;0.87;;;0.80;;
17993;SDS011;9122;48.406;9.984;2022-12-24T03:59:48;1.90;;;0.90;;
17993;SDS011;9122;48.406;9.984;2022-12-24T04:02:33;3.17;;;1.03;;
17993;SDS011;9122;48.406;9.984;2022-12-24T04:05:17;1.07;;;0.80;;
17993;SDS011;9122;48.406;9.984;2022-12-24T04:08:02;1.37;;;0.90;;
17993;SDS011;9122;48.406;9.984;2022-12-24T04:10:47;1.13;;;0.87;;
17993;SDS011;9122;48.406;9.984;2022-12-24T04:13:32;0.90;;;0.80;;
17993;SDS011;9122;48.406;9.984;2022-12-24T04:16:16;2.63;;;0.87;;
17993;SDS011;9122;48.406;9.984;2022-12-24T04:19:01;2.20;;;1.07;;
17993;SDS011;9122;48.406;9.984;2022-12-24T04:21:45;1.23;;;1.13;;
17993;SDS011;9122;48.406;9.984;2022-12-24T04:24:30;1.27;;;0.97;;
17993;SDS011;9122;48.406;9.984;2022-12-24T04:27:15;1.30;;;1.00;;
17993;SDS011;9122;48.406;9.984;2022-12-24T04:29:59;2.27;;;1.00;;
17993;SDS011;9122;48.406;9.984;2022-12-24T04:32:43;2.57;;;1.07;;
17993;SDS011;9122;48.406;9.984;2022-12-24T04:35:27;2.30;;;1.13;;
17993;SDS011;9122;48.406;9.984;2022-12-24T04:38:12;3.47;;;0.90;;
17993;SDS011;9122;48.406;9.984;2022-12-24T04:40:57;1.10;;;1.03;;
17993;SDS011;9122;48.406;9.984;2022-12-24T04:43:43;5.30;;;1.40;;
17993;SDS011;9122;48.406;9.984;2022-12-24T04:46:28;1.13;;;1.03;;
17993;SDS011;9122;48.406;9.984;2022-12-24T04:49:16;2.63;;;1.10;;
17993;SDS011;9122;48.406;9.984;2022-12-24T04:52:00;1.63;;;0.70;;
17993;SDS011;9122;48.406;9.984;2022-12-24T04:54:45;1.77;;;1.10;;
17993;SDS011;9122;48.406;9.984;2022-12-24T04:57:32;1.20;;;1.10;;
17993;SDS011;9122;48.406;9.984;2022-12-24T05:00:18;2.27;;;1.27;;
17993;SDS011;9122;48.406;9.984;2022-12-24T05:03:02;2.00;;;1.00;;
17993;SDS011;9122;48.406;9.984;2022-12-24T05:05:47;1.57;;;1.07;;
17993;SDS011;9122;48.406;9.984;2022-12-24T05:08:31;1.33;;;0.73;;
17993;SDS011;9122;48.406;9.984;2022-12-24T05:11:17;1.43;;;1.10;;
17993;SDS011;9122;48.406;9.984;2022-12-24T05:14:01;3.40;;;1.30;;
17993;SDS011;9122;48.406;9.984;2022-12-24T05:16:46;2.57;;;1.30;;
17993;SDS011;9122;48.406;9.984;2022-12-24T05:19:30;1.30;;;1.03;;
17993;SDS011;9122;48.406;9.984;2022-12-24T05:22:15;2.83;;;1.07;;
17993;SDS011;9122;48.406;9.984;2022-12-24T05:25:18;1.63;;;1.03;;
17993;SDS011;9122;48.406;9.984;2022-12-24T05:28:21;2.60;;;1.00;;
17993;SDS011;9122;48.406;9.984;2022-12-24T05:31:06;3.33;;;1.37;;
17993;SDS011;9122;48.406;9.984;2022-12-24T05:33:50;3.70;;;1.27;;
17993;SDS011;9122;48.406;9.984;2022-12-24T05:36:37;2.37;;;1.20;;
17993;SDS011;9122;48.406;9.984;2022-12-24T05:39:22;1.50;;;1.40;;
17993;SDS011;9122;48.406;9.984;2022-12-24T05:42:06;2.20;;;1.67;;
17993;SDS011;9122;48.406;9.984;2022-12-24T05:44:51;2.90;;;1.77;;
17993;SDS011;9122;48.406;9.984;2022-12-24T05:47:35;4.43;;;1.67;;
17993;SDS011;9122;48.406;9.984;2022-12-24T05:50:19;1.90;;;1.50;;
17993;SDS011;9122;48.406;9.984;2022-12-24T05:53:03;1.40;;;1.30;;
17993;SDS011;9122;48.406;9.984;2022-12-24T05:55:49;1.27;;;1.10;;
17993;SDS011;9122;48.406;9.984;2022-12-24T05:58:34;4.77;;;2.43;;
17993;SDS011;9122;48.406;9.984;2022-12-24T06:01:19;5.53;;;2.50;;
17993;SDS011;9122;48.406;9.984;2022-12-24T06:04:04;3.43;;;2.50;;
17993;SDS011;9122;48.406;9.984;2022-12-24T06:06:49;4.67;;;2.90;;
17993;SDS011;9122;48.406;9.984;2022-12-24T06:09:33;3.03;;;2.23;;
17993;SDS011;9122;48.406;9.984;2022-12-24T06:12:18;1.50;;;1.40;;
17993;SDS011;9122;48.406;9.984;2022-12-24T06:15:02;1.97;;;1.30;;
17993;SDS011;9122;48.406;9.984;2022-12-24T06:17:47;2.97;;;1.47;;
17993;SDS011;9122;48.406;9.984;2022-12-24T06:20:31;6.97;;;2.03;;
17993;SDS011;9122;48.406;9.984;2022-12-24T06:23:16;2.10;;;1.87;;
17993;SDS011;9122;48.406;9.984;2022-12-24T06:26:01;2.33;;;1.77;;
17993;SDS011;9122;48.406;9.984;2022-12-24T06:28:47;2.77;;;1.97;;
17993;SDS011;9122;48.406;9.984;2022-12-24T06:31:32;4.33;;;2.33;;
17993;SDS011;9122;48.406;9.984;2022-12-24T06:34:17;2.10;;;1.70;;
17993;SDS011;9122;48.406;9.984;2022-12-24T06:37:01;1.83;;;1.70;;
17993;SDS011;9122;48.406;9.984;2022-12-24T06:39:46;1.27;;;1.17;;
17993;SDS011;9122;48.406;9.984;2022-12-24T06:42:30;2.33;;;1.53;;
17993;SDS011;9122;48.406;9.984;2022-12-24T06:45:15;3.07;;;1.80;;
17993;SDS011;9122;48.406;9.984;2022-12-24T06:48:00;2.80;;;1.63;;
17993;SDS011;9122;48.406;9.984;2022-12-24T06:50:45;1.60;;;1.50;;
17993;SDS011;9122;48.406;9.984;2022-12-24T06:53:29;2.90;;;1.80;;
17993;SDS011;9122;48.406;9.984;2022-12-24T06:56:15;3.30;;;2.00;;
17993;SDS011;9122;48.406;9.984;2022-12-24T06:59:00;3.53;;;1.63;;
17993;SDS011;9122;48.406;9.984;2022-12-24T07:01:45;1.83;;;1.70;;
17993;SDS011;9122;48.406;9.984;2022-12-24T07:04:30;3.60;;;1.93;;
17993;SDS011;9122;48.406;9.984;2022-12-24T07:07:15;3.77;;;2.07;;
17993;SDS011;9122;48.406;9.984;2022-12-24T07:09:59;2.70;;;2.00;;
17993;SDS011;9122;48.406;9.984;2022-12-24T07:12:44;2.50;;;2.30;;
17993;SDS011;9122;48.406;9.984;2022-12-24T07:15:29;2.00;;;1.73;;
17993;SDS011;9122;48.406;9.984;2022-12-24T07:18:14;1.73;;;1.63;;
17993;SDS011;9122;48.406;9.984;2022-12-24T07:20:58;4.30;;;1.67;;
17993;SDS011;9122;48.406;9.984;2022-12-24T07:23:43;5.37;;;1.70;;
17993;SDS011;9122;48.406;9.984;2022-12-24T07:26:27;3.37;;;2.00;;
17993;SDS011;9122;48.406;9.984;2022-12-24T07:29:12;2.00;;;1.60;;
17993;SDS011;9122;48.406;9.984;2022-12-24T07:31:56;3.27;;;2.07;;
17993;SDS011;9122;48.406;9.984;2022-12-24T07:34:41;2.77;;;2.23;;
17993;SDS011;9122;48.406;9.984;2022-12-24T07:37:25;4.07;;;1.50;;
17993;SDS011;9122;48.406;9.984;2022-12-24T07:40:10;3.63;;;2.30;;
17993;SDS011;9122;48.406;9.984;2022-12-24T07:42:54;4.13;;;2.20;;
17993;SDS011;9122;48.406;9.984;2022-12-24T07:45:41;1.83;;;1.30;;
17993;SDS011;9122;48.406;9.984;2022-12-24T07:48:27;1.70;;;1.40;;
17993;SDS011;9122;48.406;9.984;2022-12-24T07:51:12;2.47;;;1.70;;
17993;SDS011;9122;48.406;9.984;2022-12-24T07:53:57;2.40;;;1.40;;
17993;SDS011;9122;48.406;9.984;2022-12-24T07:56:42;1.40;;;1.20;;
17993;SDS011;9122;48.406;9.984;2022-12-24T07:59:26;1.30;;;1.20;;
17993;SDS011;9122;48.406;9.984;2022-12-24T08:02:11;2.00;;;1.40;;
17993;SDS011;9122;48.406;9.984;2022-12-24T08:04:55;3.40;;;1.70;;
17993;SDS011;9122;48.406;9.984;2022-12-24T08:07:40;2.50;;;1.30;;
17993;SDS011;9122;48.406;9.984;2022-12-24T08:10:24;2.47;;;1.23;;
17993;SDS011;9122;48.406;9.984;2022-12-24T08:13:08;1.50;;;1.40;;
17993;SDS011;9122;48.406;9.984;2022-12-24T08:15:53;3.10;;;2.00;;
17993;SDS011;9122;48.406;9.984;2022-12-24T08:18:38;2.43;;;1.83;;
17993;SDS011;9122;48.406;9.984;2022-12-24T08:21:23;3.17;;;1.30;;
17993;SDS011;9122;48.406;9.984;2022-12-24T08:24:14;1.40;;;1.30;;
17993;SDS011;9122;48.406;9.984;2022-12-24T08:26:59;2.20;;;1.37;;
17993;SDS011;9122;48.406;9.984;2022-12-24T08:29:43;2.13;;;1.40;;
17993;SDS011;9122;48.406;9.984;2022-12-24T08:32:28;4.23;;;1.50;;
17993;SDS011;9122;48.406;9.984;2022-12-24T08:35:12;1.37;;;1.27;;
17993;SDS011;9122;48.406;9.984;2022-12-24T08:37:57;2.40;;;1.83;;
17993;SDS011;9122;48.406;9.984;2022-12-24T08:40:42;3.73;;;1.60;;
17993;SDS011;9122;48.406;9.984;2022-12-24T08:43:45;1.83;;;1.30;;
17993;SDS011;9122;48.406;9.984;2022-12-24T08:46:29;1.63;;;1.53;;
17993;SDS011;9122;48.406;9.984;2022-12-24T08:49:14;3.07;;;1.50;;
17993;SDS011;9122;48.406;9.984;2022-12-24T08:51:58;3.23;;;1.37;;
17993;SDS011;9122;48.406;9.984;2022-12-24T08:54:43;2.93;;;1.40;;
17993;SDS011;9122;48.406;9.984;2022-12-24T08:57:27;3.87;;;1.87;;
17993;SDS011;9122;48.406;9.984;2022-12-24T09:00:12;2.63;;;1.50;;
17993;SDS011;9122;48.406;9.984;2022-12-24T09:02:57;4.20;;;1.73;;
17993;SDS011;9122;48.406;9.984;2022-12-24T09:05:42;2.00;;;1.70;;
17993;SDS011;9122;48.406;9.984;2022-12-24T09:08:26;4.30;;;1.70;;
17993;SDS011;9122;48.406;9.984;2022-12-24T09:11:12;3.33;;;1.70;;
17993;SDS011;9122;48.406;9.984;2022-12-24T09:13:59;3.20;;;1.70;;
17993;SDS011;9122;48.406;9.984;2022-12-24T09:16:44;5.13;;;2.30;;
17993;SDS011;9122;48.406;9.984;2022-12-24T09:19:28;2.97;;;2.13;;
17993;SDS011;9122;48.406;9.984;2022-12-24T09:22:13;3.80;;;2.97;;
17993;SDS011;9122;48.406;9.984;2022-12-24T09:24:57;4.83;;;2.17;;
17993;SDS011;9122;48.406;9.984;2022-12-24T09:27:42;4.13;;;1.63;;
17993;SDS011;9122;48.406;9.984;2022-12-24T09:30:26;3.10;;;1.70;;
17993;SDS011;9122;48.406;9.984;2022-12-24T09:33:11;4.37;;;1.67;;
17993;SDS011;9122;48.406;9.984;2022-12-24T09:35:56;4.30;;;1.77;;
17993;SDS011;9122;48.406;9.984;2022-12-24T09:38:40;3.60;;;1.93;;
17993;SDS011;9122;48.406;9.984;2022-12-24T09:53:17;2.57;;;1.43;;
17993;SDS011;9122;48.406;9.984;2022-12-24T09:56:05;2.50;;;1.57;;
17993;SDS011;9122;48.406;9.984;2022-12-24T09:59:02;2.23;;;1.53;;
17993;SDS011;9122;48.406;9.984;2022-12-24T10:01:52;1.97;;;1.67;;
17993;SDS011;9122;48.406;9.984;2022-12-24T10:04:37;1.63;;;1.40;;
17993;SDS011;9122;48.406;9.984;2022-12-24T10:10:41;1.87;;;1.10;;
17993;SDS011;9122;48.406;9.984;2022-12-24T10:23:39;1.00;;;0.90;;
17993;SDS011;9122;48.406;9.984;2022-12-24T10:29:22;1.67;;;1.00;;
17993;SDS011;9122;48.406;9.984;2022-12-24T10:32:20;1.57;;;1.37;;
17993;SDS011;9122;48.406;9.984;2022-12-24T10:37:58;1.87;;;1.30;;
17993;SDS011;9122;48.406;9.984;2022-12-24T10:40:47;2.70;;;1.37;;
17993;SDS011;9122;48.406;9.984;2022-12-24T10:43:33;6.73;;;1.43;;
17993;SDS011;9122;48.406;9.984;2022-12-24T10:46:22;1.40;;;0.97;;
17993;SDS011;9122;48.406;9.984;2022-12-24T10:49:15;2.00;;;0.87;;
17993;SDS011;9122;48.406;9.984;2022-12-24T10:52:03;1.00;;;1.00;;
17993;SDS011;9122;48.406;9.984;2022-12-24T10:55:05;5.10;;;1.70;;
17993;SDS011;9122;48.406;9.984;2022-12-24T10:58:00;3.80;;;1.50;;
17993;SDS011;9122;48.406;9.984;2022-12-24T11:00:50;1.47;;;1.30;;
17993;SDS011;9122;48.406;9.984;2022-12-24T11:03:36;2.57;;;1.50;;
17993;SDS011;9122;48.406;9.984;2022-12-24T11:06:20;1.93;;;1.40;;
17993;SDS011;9122;48.406;9.984;2022-12-24T11:09:19;1.37;;;1.23;;
17993;SDS011;9122;48.406;9.984;2022-12-24T11:12:14;1.90;;;1.60;;
17993;SDS011;9122;48.406;9.984;2022-12-24T11:17:53;2.47;;;1.63;;
17993;SDS011;9122;48.406;9.984;2022-12-24T11:20:50;3.80;;;1.60;;
17993;SDS011;9122;48.406;9.984;2022-12-24T11:23:36;2.13;;;1.80;;
17993;SDS011;9122;48.406;9.984;2022-12-24T11:26:21;3.27;;;2.30;;
17993;SDS011;9122;48.406;9.984;2022-12-24T11:32:14;1.67;;;1.57;;
17993;SDS011;9122;48.406;9.984;2022-12-24T11:35:04;1.80;;;1.70;;
17993;SDS011;9122;48.406;9.984;2022-12-24T11:40:48;3.13;;;1.70;;
17993;SDS011;9122;48.406;9.984;2022-12-24T11:43:40;2.57;;;2.00;;
17993;SDS011;9122;48.406;9.984;2022-12-24T11:55:15;3.50;;;2.30;;
17993;SDS011;9122;48.406;9.984;2022-12-24T12:01:15;2.43;;;2.20;;
17993;SDS011;9122;48.406;9.984;2022-12-24T12:04:15;2.87;;;1.80;;
17993;SDS011;9122;48.406;9.984;2022-12-24T12:07:14;2.73;;;1.40;;
17993;SDS011;9122;48.406;9.984;2022-12-24T12:13:07;2.40;;;1.90;;
17993;SDS011;9122;48.406;9.984;2022-12-24T12:16:20;3.80;;;1.70;;
17993;SDS011;9122;48.406;9.984;2022-12-24T12:19:06;2.17;;;1.50;;
17993;SDS011;9122;48.406;9.984;2022-12-24T12:21:53;2.70;;;1.97;;
17993;SDS011;9122;48.406;9.984;2022-12-24T12:24:39;1.83;;;1.53;;
17993;SDS011;9122;48.406;9.984;2022-12-24T12:27:38;3.50;;;1.97;;
17993;SDS011;9122;48.406;9.984;2022-12-24T12:30:27;3.70;;;1.40;;
17993;SDS011;9122;48.406;9.984;2022-12-24T12:35:57;1.83;;;1.40;;
17993;SDS011;9122;48.406;9.984;2022-12-24T12:38:44;3.07;;;1.73;;
17993;SDS011;9122;48.406;9.984;2022-12-24T12:41:48;2.90;;;1.80;;
17993;SDS011;9122;48.406;9.984;2022-12-24T12:48:18;2.70;;;1.30;;
17993;SDS011;9122;48.406;9.984;2022-12-24T12:57:11;1.80;;;1.50;;
17993;SDS011;9122;48.406;9.984;2022-12-24T13:00:04;1.97;;;1.27;;
17993;SDS011;9122;48.406;9.984;2022-12-24T13:06:33;1.70;;;1.60;;
17993;SDS011;9122;48.406;9.984;2022-12-24T13:09:29;1.33;;;1.23;;
17993;SDS011;9122;48.406;9.984;2022-12-24T13:12:22;1.60;;;1.33;;
17993;SDS011;9122;48.406;9.984;2022-12-24T13:21:22;1.50;;;1.20;;
17993;SDS011;9122;48.406;9.984;2022-12-24T13:30:08;2.00;;;1.43;;
17993;SDS011;9122;48.406;9.984;2022-12-24T13:34:08;2.17;;;1.97;;
17993;SDS011;9122;48.406;9.984;2022-12-24T13:36:58;1.77;;;1.27;;
17993;SDS011;9122;48.406;9.984;2022-12-24T13:45:44;1.97;;;1.20;;
17993;SDS011;9122;48.406;9.984;2022-12-24T13:48:33;2.17;;;1.70;;
17993;SDS011;9122;48.406;9.984;2022-12-24T13:51:18;1.40;;;1.30;;
17993;SDS011;9122;48.406;9.984;2022-12-24T13:54:08;1.80;;;1.27;;
17993;SDS011;9122;48.406;9.984;2022-12-24T13:56:57;5.10;;;1.50;;
17993;SDS011;9122;48.406;9.984;2022-12-24T13:59:42;3.17;;;1.73;;
17993;SDS011;9122;48.406;9.984;2022-12-24T14:02:27;1.90;;;1.30;;
17993;SDS011;9122;48.406;9.984;2022-12-24T14:05:16;2.83;;;1.47;;
17993;SDS011;9122;48.406;9.984;2022-12-24T14:08:12;3.43;;;1.73;;
17993;SDS011;9122;48.406;9.984;2022-12-24T14:14:00;3.20;;;1.60;;
17993;SDS011;9122;48.406;9.984;2022-12-24T14:16:55;1.53;;;1.43;;
17993;SDS011;9122;48.406;9.984;2022-12-24T14:19:42;1.80;;;1.70;;
17993;SDS011;9122;48.406;9.984;2022-12-24T14:25:21;1.40;;;1.30;;
17993;SDS011;9122;48.406;9.984;2022-12-24T14:28:10;2.87;;;1.60;;
17993;SDS011;9122;48.406;9.984;2022-12-24T14:31:00;2.07;;;1.73;;
17993;SDS011;9122;48.406;9.984;2022-12-24T14:33:46;1.70;;;1.60;;
17993;SDS011;9122;48.406;9.984;2022-12-24T14:36:31;1.33;;;1.27;;
17993;SDS011;9122;48.406;9.984;2022-12-24T14:39:21;2.60;;;1.87;;
17993;SDS011;9122;48.406;9.984;2022-12-24T14:48:18;2.37;;;1.20;;
17993;SDS011;9122;48.406;9.984;2022-12-24T14:51:16;1.50;;;1.40;;
17993;SDS011;9122;48.406;9.984;2022-12-24T14:59:59;2.20;;;1.77;;
17993;SDS011;9122;48.406;9.984;2022-12-24T15:02:45;1.93;;;1.63;;
17993;SDS011;9122;48.406;9.984;2022-12-24T15:05:33;4.80;;;2.50;;
17993;SDS011;9122;48.406;9.984;2022-12-24T15:08:21;2.00;;;1.90;;
17993;SDS011;9122;48.406;9.984;2022-12-24T15:11:25;2.77;;;2.57;;
17993;SDS011;9122;48.406;9.984;2022-12-24T15:14:10;3.33;;;3.07;;
17993;SDS011;9122;48.406;9.984;2022-12-24T15:17:02;6.20;;;3.80;;
17993;SDS011;9122;48.406;9.984;2022-12-24T15:19:50;4.10;;;3.70;;
17993;SDS011;9122;48.406;9.984;2022-12-24T15:22:35;5.27;;;4.40;;
17993;SDS011;9122;48.406;9.984;2022-12-24T15:28:16;4.37;;;4.03;;
17993;SDS011;9122;48.406;9.984;2022-12-24T15:31:09;2.60;;;2.40;;
17993;SDS011;9122;48.406;9.984;2022-12-24T15:33:58;2.50;;;2.30;;
17993;SDS011;9122;48.406;9.984;2022-12-24T15:36:43;2.20;;;2.00;;
17993;SDS011;9122;48.406;9.984;2022-12-24T15:39:28;2.30;;;2.17;;
17993;SDS011;9122;48.406;9.984;2022-12-24T15:42:16;2.67;;;2.20;;
17993;SDS011;9122;48.406;9.984;2022-12-24T15:48:05;3.00;;;2.53;;
17993;SDS011;9122;48.406;9.984;2022-12-24T15:50:55;3.00;;;2.67;;
17993;SDS011;9122;48.406;9.984;2022-12-24T15:53:42;1.60;;;1.50;;
17993;SDS011;9122;48.406;9.984;2022-12-24T15:56:29;3.53;;;2.20;;
17993;SDS011;9122;48.406;9.984;2022-12-24T15:59:33;2.00;;;1.80;;
17993;SDS011;9122;48.406;9.984;2022-12-24T16:11:15;2.23;;;2.03;;
17993;SDS011;9122;48.406;9.984;2022-12-24T16:14:10;1.93;;;1.83;;
17993;SDS011;9122;48.406;9.984;2022-12-24T16:16:59;2.00;;;1.90;;
17993;SDS011;9122;48.406;9.984;2022-12-24T16:19:49;2.23;;;1.67;;
17993;SDS011;9122;48.406;9.984;2022-12-24T16:22:36;2.47;;;2.00;;
17993;SDS011;9122;48.406;9.984;2022-12-24T16:25:24;1.90;;;1.80;;
17993;SDS011;9122;48.406;9.984;2022-12-24T16:28:10;2.03;;;1.93;;
17993;SDS011;9122;48.406;9.984;2022-12-24T16:30:55;1.97;;;1.77;;
17993;SDS011;9122;48.406;9.984;2022-12-24T16:33:40;1.93;;;1.77;;
17993;SDS011;9122;48.406;9.984;2022-12-24T16:36:25;2.33;;;2.07;;
17993;SDS011;9122;48.406;9.984;2022-12-24T16:39:15;2.70;;;2.50;;
17993;SDS011;9122;48.406;9.984;2022-12-24T16:42:07;2.00;;;1.90;;
17993;SDS011;9122;48.406;9.984;2022-12-24T16:45:10;1.53;;;1.43;;
17993;SDS011;9122;48.406;9.984;2022-12-24T16:47:55;2.40;;;2.20;;
17993;SDS011;9122;48.406;9.984;2022-12-24T16:50:41;1.80;;;1.70;;
17993;SDS011;9122;48.406;9.984;2022-12-24T16:53:26;1.97;;;1.80;;
17993;SDS011;9122;48.406;9.984;2022-12-24T16:56:10;2.27;;;1.60;;
17993;SDS011;9122;48.406;9.984;2022-12-24T16:58:54;2.20;;;2.00;;
17993;SDS011;9122;48.406;9.984;2022-12-24T17:01:39;1.97;;;1.80;;
17993;SDS011;9122;48.406;9.984;2022-12-24T17:04:23;2.10;;;2.00;;
17993;SDS011;9122;48.406;9.984;2022-12-24T17:07:08;2.13;;;2.00;;
17993;SDS011;9122;48.406;9.984;2022-12-24T17:09:54;3.17;;;1.73;;
17993;SDS011;9122;48.406;9.984;2022-12-24T17:12:39;2.80;;;2.37;;
17993;SDS011;9122;48.406;9.984;2022-12-24T17:15:23;2.47;;;2.10;;
17993;SDS011;9122;48.406;9.984;2022-12-24T17:18:07;2.73;;;2.50;;
17993;SDS011;9122;48.406;9.984;2022-12-24T17:20:56;2.73;;;2.30;;
17993;SDS011;9122;48.406;9.984;2022-12-24T17:23:41;2.93;;;2.73;;
17993;SDS011;9122;48.406;9.984;2022-12-24T17:26:26;2.43;;;2.30;;
17993;SDS011;9122;48.406;9.984;2022-12-24T17:29:23;2.30;;;2.20;;
17993;SDS011;9122;48.406;9.984;2022-12-24T17:32:08;5.03;;;2.33;;
17993;SDS011;9122;48.406;9.984;2022-12-24T17:34:52;3.37;;;2.53;;
17993;SDS011;9122;48.406;9.984;2022-12-24T17:37:37;2.83;;;2.50;;
17993;SDS011;9122;48.406;9.984;2022-12-24T17:40:26;3.30;;;2.53;;
17993;SDS011;9122;48.406;9.984;2022-12-24T17:43:12;3.20;;;2.37;;
17993;SDS011;9122;48.406;9.984;2022-12-24T17:45:56;2.37;;;2.17;;
17993;SDS011;9122;48.406;9.984;2022-12-24T17:48:41;3.03;;;2.73;;
17993;SDS011;9122;48.406;9.984;2022-12-24T17:51:26;2.47;;;2.27;;
17993;SDS011;9122;48.406;9.984;2022-12-24T17:54:11;3.77;;;2.27;;
17993;SDS011;9122;48.406;9.984;2022-12-24T18:00:24;2.83;;;2.63;;
17993;SDS011;9122;48.406;9.984;2022-12-24T18:03:10;3.73;;;2.83;;
17993;SDS011;9122;48.406;9.984;2022-12-24T18:06:06;3.03;;;2.77;;
17993;SDS011;9122;48.406;9.984;2022-12-24T18:08:52;3.00;;;2.80;;
17993;SDS011;9122;48.406;9.984;2022-12-24T18:11:37;3.20;;;2.90;;
17993;SDS011;9122;48.406;9.984;2022-12-24T18:14:22;3.40;;;3.10;;
17993;SDS011;9122;48.406;9.984;2022-12-24T18:17:12;3.63;;;3.20;;
17993;SDS011;9122;48.406;9.984;2022-12-24T18:19:56;3.83;;;3.40;;
17993;SDS011;9122;48.406;9.984;2022-12-24T18:22:41;4.80;;;4.03;;
17993;SDS011;9122;48.406;9.984;2022-12-24T18:25:26;3.90;;;3.50;;
17993;SDS011;9122;48.406;9.984;2022-12-24T18:28:10;4.13;;;3.43;;
17993;SDS011;9122;48.406;9.984;2022-12-24T18:30:58;5.57;;;3.33;;
17993;SDS011;9122;48.406;9.984;2022-12-24T18:33:44;4.27;;;3.87;;
17993;SDS011;9122;48.406;9.984;2022-12-24T18:36:29;5.20;;;4.53;;
17993;SDS011;9122;48.406;9.984;2022-12-24T18:39:14;5.47;;;5.00;;
17993;SDS011;9122;48.406;9.984;2022-12-24T18:41:58;8.80;;;6.00;;
17993;SDS011;9122;48.406;9.984;2022-12-24T18:44:43;5.10;;;4.70;;
17993;SDS011;9122;48.406;9.984;2022-12-24T18:47:30;4.20;;;3.80;;
17993;SDS011;9122;48.406;9.984;2022-12-24T18:50:15;5.07;;;4.67;;
17993;SDS011;9122;48.406;9.984;2022-12-24T18:53:00;3.90;;;3.60;;
17993;SDS011;9122;48.406;9.984;2022-12-24T18:55:44;4.10;;;3.70;;
17993;SDS011;9122;48.406;9.984;2022-12-24T18:58:29;3.83;;;3.53;;
17993;SDS011;9122;48.406;9.984;2022-12-24T19:01:17;4.00;;;3.70;;
17993;SDS011;9122;48.406;9.984;2022-12-24T19:04:04;4.10;;;3.67;;
17993;SDS011;9122;48.406;9.984;2022-12-24T19:06:49;4.10;;;3.57;;
17993;SDS011;9122;48.406;9.984;2022-12-24T19:09:33;4.73;;;3.00;;
17993;SDS011;9122;48.406;9.984;2022-12-24T19:12:17;4.93;;;3.30;;
17993;SDS011;9122;48.406;9.984;2022-12-24T19:15:02;4.33;;;4.03;;
17993;SDS011;9122;48.406;9.984;2022-12-24T19:17:52;4.77;;;3.63;;
17993;SDS011;9122;48.406;9.984;2022-12-24T19:20:38;3.80;;;3.50;;